createdAt,value
2023-01-05T00:01:39.464Z,37.13
2023-01-05T00:04:08.080Z,31.63
2023-01-05T00:06:37.719Z,29.90
2023-01-05T00:09:06.818Z,34.17
2023-01-05T00:11:52.253Z,42.73
2023-01-05T00:14:38.641Z,34.60
2023-01-05T00:17:26.461Z,30.40
2023-01-05T00:20:12.714Z,32.33
2023-01-05T00:22:43.149Z,30.27
2023-01-05T00:25:13.071Z,36.37
2023-01-05T00:27:41.981Z,26.03
2023-01-05T00:30:10.938Z,33.83
2023-01-05T00:32:40.858Z,31.90
2023-01-05T00:35:09.886Z,33.30
2023-01-05T00:37:39.204Z,32.33
2023-01-05T00:40:08.891Z,31.27
2023-01-05T00:42:37.330Z,38.63
2023-01-05T00:45:06.004Z,36.70
2023-01-05T00:47:34.480Z,35.87
2023-01-05T00:50:06.211Z,32.50
2023-01-05T00:52:34.778Z,32.77
2023-01-05T00:55:03.443Z,32.27
2023-01-05T00:57:32.016Z,28.97
2023-01-05T01:00:02.214Z,41.63
2023-01-05T01:02:30.988Z,29.07
2023-01-05T01:04:59.696Z,33.27
2023-01-05T01:07:29.779Z,37.07
2023-01-05T01:09:58.356Z,37.57
2023-01-05T01:12:27.186Z,32.10
2023-01-05T01:14:55.951Z,30.03
2023-01-05T01:17:24.486Z,40.10
2023-01-05T01:19:53.205Z,35.23
2023-01-05T01:22:21.746Z,31.57
2023-01-05T01:24:51.684Z,31.37
2023-01-05T01:27:20.093Z,32.50
2023-01-05T01:29:48.539Z,31.37
2023-01-05T01:32:17.530Z,28.63
2023-01-05T01:34:46.100Z,31.07
2023-01-05T01:37:15.265Z,32.43
2023-01-05T01:39:43.951Z,30.47
2023-01-05T01:42:15.464Z,28.43
2023-01-05T01:44:54.066Z,32.33
2023-01-05T01:47:24.209Z,34.47
2023-01-05T01:49:53.063Z,25.80
2023-01-05T01:52:21.549Z,38.17
2023-01-05T01:54:50.129Z,34.63
2023-01-05T01:57:19.973Z,22.20
2023-01-05T01:59:48.560Z,31.17
2023-01-05T02:02:17.039Z,31.90
2023-01-05T02:04:45.653Z,28.43
2023-01-05T02:07:14.167Z,34.70
2023-01-05T02:09:42.753Z,30.50
2023-01-05T02:12:13.514Z,31.17
2023-01-05T02:14:45.825Z,31.97
2023-01-05T02:17:17.424Z,27.87
2023-01-05T02:20:00.875Z,28.63
2023-01-05T02:22:35.905Z,32.43
2023-01-05T02:25:09.242Z,24.00
2023-01-05T02:27:41.819Z,26.53
2023-01-05T02:30:19.935Z,37.90
2023-01-05T02:32:52.297Z,23.13
2023-01-05T02:35:22.631Z,22.63
2023-01-05T02:37:54.124Z,28.60
2023-01-05T02:40:23.411Z,31.60
2023-01-05T02:42:52.324Z,27.47
2023-01-05T02:45:20.816Z,27.23
2023-01-05T02:47:49.174Z,29.57
2023-01-05T02:50:19.548Z,23.73
2023-01-05T02:52:49.736Z,32.90
2023-01-05T02:55:18.603Z,29.10
2023-01-05T02:57:48.313Z,31.10
2023-01-05T03:00:17.018Z,27.87
2023-01-05T03:02:45.606Z,25.20
2023-01-05T03:05:14.908Z,28.37
2023-01-05T03:07:44.733Z,27.20
2023-01-05T03:10:30.979Z,25.77
2023-01-05T03:13:17.069Z,32.23
2023-01-05T03:15:45.617Z,36.60
2023-01-05T03:18:14.355Z,26.90
2023-01-05T03:20:42.889Z,28.20
2023-01-05T03:23:30.690Z,35.83
2023-01-05T03:26:16.666Z,34.23
2023-01-05T03:29:03.417Z,33.13
2023-01-05T03:31:50.373Z,31.57
2023-01-05T03:34:36.772Z,29.80
2023-01-05T03:37:05.873Z,32.23
2023-01-05T03:39:35.703Z,22.20
2023-01-05T03:42:04.590Z,30.33
2023-01-05T03:44:33.227Z,37.03
2023-01-05T03:47:01.669Z,32.10
2023-01-05T03:49:30.161Z,31.40
2023-01-05T03:51:58.899Z,28.57
2023-01-05T03:54:27.361Z,31.23
2023-01-05T03:56:57.259Z,38.57
2023-01-05T03:59:25.700Z,26.10
2023-01-05T04:01:54.311Z,31.03
2023-01-05T04:04:22.920Z,33.30
2023-01-05T04:06:51.336Z,30.23
2023-01-05T04:09:19.794Z,36.00
2023-01-05T04:11:48.138Z,39.67
2023-01-05T04:14:18.091Z,30.63
2023-01-05T04:16:46.569Z,38.37
2023-01-05T04:19:15.132Z,28.80
2023-01-05T04:21:43.532Z,35.50
2023-01-05T04:24:12.002Z,38.40
2023-01-05T04:26:41.916Z,29.00
2023-01-05T04:29:11.421Z,35.07
2023-01-05T04:31:41.204Z,31.47
2023-01-05T04:34:09.615Z,42.93
2023-01-05T04:36:38.113Z,33.17
2023-01-05T04:39:06.636Z,26.43
2023-01-05T04:41:35.368Z,31.30
2023-01-05T04:44:03.842Z,29.57
2023-01-05T04:46:32.326Z,40.50
2023-01-05T04:49:02.191Z,32.87
2023-01-05T04:51:30.798Z,37.90
2023-01-05T04:53:59.223Z,38.50
2023-01-05T04:56:27.774Z,43.20
2023-01-05T04:58:56.165Z,34.20
2023-01-05T05:01:24.675Z,37.13
2023-01-05T05:03:53.408Z,36.60
2023-01-05T05:06:23.234Z,32.33
2023-01-05T05:08:52.028Z,37.23
2023-01-05T05:11:20.457Z,32.67
2023-01-05T05:13:48.997Z,33.00
2023-01-05T05:16:17.442Z,41.73
2023-01-05T05:18:46.137Z,33.10
2023-01-05T05:21:14.594Z,37.97
2023-01-05T05:23:44.708Z,33.60
2023-01-05T05:26:13.276Z,38.80
2023-01-05T05:28:41.800Z,35.03
2023-01-05T05:31:10.629Z,36.70
2023-01-05T05:33:39.279Z,35.57
2023-01-05T05:36:08.302Z,41.47
2023-01-05T05:38:37.027Z,47.87
2023-01-05T05:41:07.202Z,38.70
2023-01-05T05:43:35.836Z,38.77
2023-01-05T05:46:04.274Z,39.33
2023-01-05T05:48:32.731Z,36.40
2023-01-05T05:51:01.315Z,37.70
2023-01-05T05:53:29.781Z,36.53
2023-01-05T05:55:58.253Z,42.90
2023-01-05T05:58:28.101Z,41.37
2023-01-05T06:00:59.270Z,34.23
2023-01-05T06:03:27.764Z,35.17
2023-01-05T06:05:56.276Z,45.47
2023-01-05T06:08:25.148Z,37.53
2023-01-05T06:10:53.783Z,38.57
2023-01-05T06:13:22.388Z,37.33
2023-01-05T06:15:52.471Z,40.50
2023-01-05T06:18:20.955Z,29.20
2023-01-05T06:20:49.422Z,40.37
2023-01-05T06:23:17.894Z,37.70
2023-01-05T06:25:46.349Z,30.47
2023-01-05T06:28:20.112Z,29.37
2023-01-05T06:30:48.988Z,35.33
2023-01-05T06:33:18.937Z,35.63
2023-01-05T06:35:47.331Z,37.70
2023-01-05T06:38:16.544Z,35.77
2023-01-05T06:40:45.378Z,28.60
2023-01-05T06:43:13.995Z,34.47
2023-01-05T06:45:42.428Z,41.57
2023-01-05T06:48:10.789Z,42.83
2023-01-05T06:50:40.818Z,34.00
2023-01-05T06:53:09.601Z,29.70
2023-01-05T06:55:38.230Z,33.40
2023-01-05T06:58:06.725Z,34.70
2023-01-05T07:00:35.301Z,33.17
2023-01-05T07:03:03.724Z,38.33
2023-01-05T07:05:32.331Z,37.73
2023-01-05T07:08:02.337Z,33.87
2023-01-05T07:10:30.632Z,39.00
2023-01-05T07:12:59.358Z,36.17
2023-01-05T07:15:28.035Z,36.70
2023-01-05T07:17:56.402Z,46.27
2023-01-05T07:20:27.834Z,35.20
2023-01-05T07:22:56.371Z,37.73
2023-01-05T07:25:31.409Z,40.30
2023-01-05T07:28:00.029Z,39.93
2023-01-05T07:30:28.474Z,32.63
2023-01-05T07:32:59.670Z,32.77
2023-01-05T07:35:28.088Z,38.83
2023-01-05T07:37:58.021Z,48.17
2023-01-05T07:40:28.591Z,33.70
2023-01-05T07:42:57.070Z,37.30
2023-01-05T07:45:25.578Z,39.83
2023-01-05T07:47:54.081Z,42.63
2023-01-05T07:50:22.746Z,36.80
2023-01-05T07:52:57.375Z,32.80
2023-01-05T07:55:26.079Z,32.97
2023-01-05T07:57:56.112Z,36.97
2023-01-05T08:00:24.703Z,36.53
2023-01-05T08:02:53.214Z,33.47
2023-01-05T08:05:21.771Z,37.00
2023-01-05T08:07:50.203Z,35.60
2023-01-05T08:10:32.626Z,33.23
2023-01-05T08:13:23.632Z,34.77
2023-01-05T08:15:54.189Z,34.33
2023-01-05T08:18:22.945Z,37.73
2023-01-05T08:20:52.514Z,28.87
2023-01-05T08:23:25.935Z,33.97
2023-01-05T08:25:55.204Z,29.77
2023-01-05T08:28:29.903Z,41.77
2023-01-05T08:31:03.574Z,31.37
2023-01-05T08:33:32.021Z,35.23
2023-01-05T08:36:03.835Z,40.67
2023-01-05T08:38:33.380Z,36.20
2023-01-05T08:41:01.819Z,36.50
2023-01-05T08:43:31.695Z,33.20
2023-01-05T08:46:00.200Z,28.87
2023-01-05T08:48:28.810Z,34.37
2023-01-05T08:51:06.530Z,31.17
2023-01-05T08:53:35.712Z,30.67
2023-01-05T08:56:04.249Z,33.67
2023-01-05T08:58:34.071Z,28.57
2023-01-05T09:01:02.744Z,34.37
2023-01-05T09:03:31.428Z,34.73
2023-01-05T09:06:03.343Z,36.20
2023-01-05T09:08:31.690Z,31.03
2023-01-05T09:11:07.332Z,31.90
2023-01-05T09:13:37.314Z,32.77
2023-01-05T09:16:07.061Z,33.40
2023-01-05T09:18:38.698Z,36.87
2023-01-05T09:21:07.374Z,40.33
2023-01-05T09:23:35.898Z,33.67
2023-01-05T09:26:05.207Z,35.70
2023-01-05T09:28:35.636Z,37.03
2023-01-05T09:31:12.143Z,27.77
2023-01-05T09:33:40.818Z,34.00
2023-01-05T09:36:09.637Z,37.83
2023-01-05T09:38:43.416Z,40.10
2023-01-05T09:41:19.124Z,44.57
2023-01-05T09:43:47.697Z,39.53
2023-01-05T09:46:18.375Z,36.40
2023-01-05T09:48:47.800Z,39.27
2023-01-05T09:51:16.265Z,32.77
2023-01-05T09:53:47.591Z,35.40
2023-01-05T09:56:50.398Z,38.13
2023-01-05T09:59:14.220Z,40.57
2023-01-05T10:01:44.329Z,39.53
2023-01-05T10:04:16.994Z,40.13
2023-01-05T10:06:46.056Z,37.97
2023-01-05T10:09:15.406Z,35.33
2023-01-05T10:12:03.856Z,35.57
2023-01-05T10:14:33.620Z,34.20
2023-01-05T10:17:39.010Z,42.17
2023-01-05T10:19:51.842Z,42.47
2023-01-05T10:22:26.239Z,43.50
2023-01-05T10:24:56.048Z,36.27
2023-01-05T10:27:26.606Z,34.23
2023-01-05T10:30:00.682Z,35.33
2023-01-05T10:32:31.835Z,36.67
2023-01-05T10:35:00.661Z,36.87
2023-01-05T10:37:54.198Z,42.00
2023-01-05T10:40:35.452Z,35.07
2023-01-05T10:43:17.385Z,39.40
2023-01-05T10:46:19.386Z,37.50
2023-01-05T10:48:38.841Z,40.50
2023-01-05T10:51:07.654Z,37.50
2023-01-05T10:53:39.705Z,34.57
2023-01-05T10:56:08.685Z,37.13
2023-01-05T10:58:38.740Z,41.27
2023-01-05T11:01:08.591Z,39.17
2023-01-05T11:04:23.983Z,30.40
2023-01-05T11:06:30.256Z,37.63
2023-01-05T11:09:06.414Z,42.67
2023-01-05T11:11:37.711Z,45.57
2023-01-05T11:14:06.056Z,37.87
2023-01-05T11:16:35.375Z,36.50
2023-01-05T11:19:16.154Z,42.73
2023-01-05T11:21:46.087Z,31.73
2023-01-05T11:24:28.037Z,38.63
2023-01-05T11:26:56.782Z,41.37
2023-01-05T11:29:25.891Z,29.37
2023-01-05T11:31:55.317Z,39.73
2023-01-05T11:34:38.617Z,34.87
2023-01-05T11:37:08.864Z,40.60
2023-01-05T11:39:38.247Z,33.83
2023-01-05T11:42:10.705Z,38.60
2023-01-05T11:44:39.306Z,31.47
2023-01-05T11:47:09.015Z,38.30
2023-01-05T11:49:39.746Z,34.90
2023-01-05T11:52:15.995Z,42.83
2023-01-05T11:54:45.281Z,36.13
2023-01-05T11:57:17.167Z,32.53
2023-01-05T11:59:46.611Z,31.27
2023-01-05T12:02:27.506Z,42.87
2023-01-05T12:05:04.708Z,44.20
2023-01-05T12:07:34.847Z,29.77
2023-01-05T12:10:06.779Z,40.97
2023-01-05T12:15:50.536Z,37.73
2023-01-05T12:18:23.106Z,37.23
2023-01-05T12:20:56.114Z,27.77
2023-01-05T12:23:30.026Z,36.27
2023-01-05T12:25:59.607Z,41.57
2023-01-05T12:28:41.813Z,54.30
2023-01-05T12:34:13.322Z,34.47
2023-01-05T12:36:46.777Z,40.90
2023-01-05T12:39:26.960Z,34.33
2023-01-05T12:42:14.049Z,28.93
2023-01-05T12:44:45.964Z,29.70
2023-01-05T12:47:21.419Z,27.90
2023-01-05T12:49:51.173Z,35.97
2023-01-05T12:52:22.165Z,28.23
2023-01-05T12:54:51.516Z,32.13
2023-01-05T12:57:20.523Z,39.67
2023-01-05T12:59:51.905Z,29.27
2023-01-05T13:02:28.082Z,30.63
2023-01-05T13:05:06.848Z,39.07
2023-01-05T13:07:37.699Z,32.93
2023-01-05T13:10:08.639Z,31.53
2023-01-05T13:12:37.026Z,34.00
2023-01-05T13:15:07.355Z,33.27
2023-01-05T13:17:36.109Z,30.53
2023-01-05T13:20:05.285Z,38.00
2023-01-05T13:22:35.058Z,26.40
2023-01-05T13:25:05.712Z,35.60
2023-01-05T13:27:34.577Z,35.23
2023-01-05T13:30:03.344Z,29.17
2023-01-05T13:32:35.944Z,36.87
2023-01-05T13:35:22.687Z,30.40
2023-01-05T13:38:04.466Z,27.63
2023-01-05T13:40:40.337Z,36.30
2023-01-05T13:43:30.743Z,32.20
2023-01-05T13:46:04.066Z,33.63
2023-01-05T13:48:45.071Z,33.37
2023-01-05T13:51:32.012Z,38.30
2023-01-05T13:54:00.868Z,35.77
2023-01-05T13:56:31.220Z,36.97
2023-01-05T13:59:00.386Z,34.17
2023-01-05T14:01:35.945Z,32.60
2023-01-05T14:04:04.661Z,43.50
2023-01-05T14:06:33.811Z,44.47
2023-01-05T14:11:35.018Z,36.87
2023-01-05T14:14:05.147Z,45.17
2023-01-05T14:16:50.082Z,37.87
2023-01-05T14:19:22.640Z,37.07
2023-01-05T14:22:04.019Z,34.27
2023-01-05T14:24:33.557Z,31.83
2023-01-05T14:27:04.535Z,34.40
2023-01-05T14:32:22.528Z,35.47
2023-01-05T14:34:51.833Z,28.43
2023-01-05T14:37:23.986Z,26.93
2023-01-05T14:39:53.349Z,26.43
2023-01-05T14:42:27.695Z,27.57
2023-01-05T14:44:59.697Z,31.00
2023-01-05T14:47:35.231Z,24.90
2023-01-05T14:50:06.652Z,23.33
2023-01-05T14:52:53.880Z,25.43
2023-01-05T14:55:44.419Z,23.63
2023-01-05T14:58:15.717Z,24.83
2023-01-05T15:00:45.274Z,26.70
2023-01-05T15:05:55.256Z,29.83
2023-01-05T15:08:41.259Z,27.93
2023-01-05T15:11:20.228Z,33.73
2023-01-05T15:14:21.214Z,25.67
2023-01-05T15:16:58.831Z,27.13
2023-01-05T15:19:33.375Z,30.87
2023-01-05T15:22:13.435Z,23.77
2023-01-05T15:25:05.568Z,24.77
2023-01-05T15:27:38.100Z,29.17
2023-01-05T15:30:15.468Z,27.40
2023-01-05T15:32:44.715Z,23.87
2023-01-05T15:35:14.078Z,23.40
2023-01-05T15:37:47.347Z,27.60
2023-01-05T15:40:33.562Z,24.23
2023-01-05T15:43:13.416Z,20.87
2023-01-05T15:45:43.910Z,15.43
2023-01-05T15:48:14.055Z,20.40
2023-01-05T15:50:46.257Z,19.73
2023-01-05T15:53:24.376Z,22.17
2023-01-05T15:55:53.395Z,17.03
2023-01-05T15:58:21.872Z,21.57
2023-01-05T16:01:02.970Z,23.00
2023-01-05T16:03:31.876Z,15.17
2023-01-05T16:06:00.408Z,20.97
2023-01-05T16:08:28.775Z,20.40
2023-01-05T16:10:59.888Z,21.57
2023-01-05T16:13:29.884Z,23.10
2023-01-05T16:15:59.217Z,27.53
2023-01-05T16:18:29.226Z,21.73
2023-01-05T16:20:57.674Z,23.00
2023-01-05T16:23:27.718Z,17.67
2023-01-05T16:25:58.090Z,22.17
2023-01-05T16:28:26.537Z,22.97
2023-01-05T16:30:55.428Z,22.13
2023-01-05T16:33:34.767Z,19.63
2023-01-05T16:36:19.263Z,19.53
2023-01-05T16:38:47.903Z,18.00
2023-01-05T16:41:17.162Z,24.77
2023-01-05T16:43:51.985Z,23.27
2023-01-05T16:46:29.105Z,26.00
2023-01-05T16:48:58.967Z,27.73
2023-01-05T16:51:38.737Z,22.13
2023-01-05T16:54:07.704Z,30.10
2023-01-05T16:56:53.493Z,24.13
2023-01-05T16:59:40.381Z,22.80
2023-01-05T17:02:19.750Z,25.93
2023-01-05T17:04:49.297Z,25.17
2023-01-05T17:07:20.079Z,22.30
2023-01-05T17:09:48.636Z,23.57
2023-01-05T17:12:16.990Z,27.37
2023-01-05T17:14:46.705Z,26.33
2023-01-05T17:17:15.249Z,27.43
2023-01-05T17:19:43.622Z,34.73
2023-01-05T17:22:12.976Z,30.63
2023-01-05T17:24:42.942Z,30.23
2023-01-05T17:29:45.186Z,28.47
2023-01-05T17:32:13.584Z,23.67
2023-01-05T17:34:42.557Z,23.57
2023-01-05T17:37:12.575Z,29.53
2023-01-05T17:39:41.090Z,22.27
2023-01-05T17:42:28.512Z,28.07
2023-01-05T17:44:56.930Z,23.40
2023-01-05T17:47:25.359Z,26.37
2023-01-05T17:49:53.791Z,25.43
2023-01-05T17:52:22.413Z,26.20
2023-01-05T17:54:50.891Z,29.43
2023-01-05T17:57:21.001Z,28.87
2023-01-05T17:59:49.817Z,20.37
2023-01-05T18:02:18.441Z,27.57
2023-01-05T18:04:46.975Z,20.43
2023-01-05T18:07:15.495Z,17.20
2023-01-05T18:09:43.910Z,24.63
2023-01-05T18:12:12.371Z,25.30
2023-01-05T18:14:43.796Z,26.73
2023-01-05T18:17:12.344Z,24.30
2023-01-05T18:22:14.225Z,24.57
2023-01-05T18:24:42.807Z,21.70
2023-01-05T18:27:11.245Z,19.67
2023-01-05T18:29:39.790Z,25.00
2023-01-05T18:32:09.858Z,30.50
2023-01-05T18:34:38.475Z,22.77
2023-01-05T18:37:20.337Z,21.57
2023-01-05T18:39:49.272Z,29.10
2023-01-05T18:42:17.799Z,19.63
2023-01-05T18:44:46.179Z,26.23
2023-01-05T18:47:16.081Z,25.07
2023-01-05T18:49:44.591Z,36.47
2023-01-05T18:52:13.263Z,25.50
2023-01-05T18:54:41.970Z,30.53
2023-01-05T18:57:10.468Z,27.10
2023-01-05T18:59:39.120Z,21.73
2023-01-05T19:02:07.736Z,32.03
2023-01-05T19:04:37.602Z,28.73
2023-01-05T19:07:06.132Z,24.53
2023-01-05T19:09:34.610Z,32.73
2023-01-05T19:12:03.189Z,28.97
2023-01-05T19:14:31.758Z,26.43
2023-01-05T19:17:00.219Z,27.43
2023-01-05T19:19:28.739Z,28.33
2023-01-05T19:21:58.599Z,28.17
2023-01-05T19:24:27.881Z,32.87
2023-01-05T19:26:56.406Z,33.77
2023-01-05T19:29:25.506Z,30.57
2023-01-05T19:31:54.006Z,42.37
2023-01-05T19:34:22.590Z,40.37
2023-01-05T19:36:51.182Z,34.23
2023-01-05T19:39:22.309Z,34.67
2023-01-05T19:41:51.533Z,26.23
2023-01-05T19:44:21.338Z,32.77
2023-01-05T19:46:52.437Z,34.23
2023-01-05T19:49:21.644Z,33.90
2023-01-05T19:51:53.412Z,30.27
2023-01-05T19:54:25.174Z,28.20
2023-01-05T19:56:54.783Z,34.37
2023-01-05T19:59:24.734Z,29.27
2023-01-05T20:01:54.898Z,30.60
2023-01-05T20:04:23.759Z,25.97
2023-01-05T20:06:52.678Z,24.27
2023-01-05T20:09:22.073Z,23.40
2023-01-05T20:11:54.798Z,22.73
2023-01-05T20:14:26.161Z,26.93
2023-01-05T20:16:55.618Z,32.80
2023-01-05T20:19:26.694Z,22.87
2023-01-05T20:21:55.190Z,23.00
2023-01-05T20:24:24.350Z,21.83
2023-01-05T20:26:55.271Z,28.40
2023-01-05T20:29:24.074Z,15.53
2023-01-05T20:31:55.090Z,28.77
2023-01-05T20:34:24.198Z,22.63
2023-01-05T20:36:52.788Z,25.77
2023-01-05T20:39:22.340Z,22.53
2023-01-05T20:41:51.118Z,18.47
2023-01-05T20:44:21.885Z,25.00
2023-01-05T20:46:50.756Z,17.53
2023-01-05T20:49:36.858Z,17.43
2023-01-05T20:52:05.829Z,22.70
2023-01-05T20:54:34.415Z,17.83
2023-01-05T20:57:03.243Z,23.47
2023-01-05T20:59:35.028Z,15.57
2023-01-05T21:02:05.727Z,20.87
2023-01-05T21:04:36.376Z,15.57
2023-01-05T21:07:04.992Z,20.53
2023-01-05T21:09:33.904Z,17.33
2023-01-05T21:12:02.489Z,13.73
2023-01-05T21:14:31.031Z,24.63
2023-01-05T21:17:00.805Z,10.73
2023-01-05T21:19:29.257Z,17.83
2023-01-05T21:21:58.086Z,20.67
2023-01-05T21:24:27.069Z,16.07
2023-01-05T21:26:58.283Z,15.63
2023-01-05T21:29:27.066Z,17.60
2023-01-05T21:31:55.934Z,15.00
2023-01-05T21:34:25.873Z,12.33
2023-01-05T21:36:54.551Z,18.93
2023-01-05T21:39:24.570Z,18.83
2023-01-05T21:42:11.489Z,18.33
2023-01-05T21:44:40.421Z,12.87
2023-01-05T21:47:08.788Z,12.63
2023-01-05T21:49:38.695Z,19.57
2023-01-05T21:52:24.912Z,15.27
2023-01-05T21:55:11.212Z,10.70
2023-01-05T21:57:39.694Z,14.83
2023-01-05T22:00:08.650Z,15.13
2023-01-05T22:02:37.452Z,12.63
2023-01-05T22:05:08.162Z,9.50
2023-01-05T22:07:36.645Z,14.83
2023-01-05T22:10:05.224Z,13.13
2023-01-05T22:12:33.768Z,10.20
2023-01-05T22:15:02.205Z,12.67
2023-01-05T22:17:30.933Z,9.90
2023-01-05T22:19:59.402Z,13.73
2023-01-05T22:22:29.422Z,10.73
2023-01-05T22:24:57.774Z,14.80
2023-01-05T22:27:26.138Z,12.00
2023-01-05T22:29:54.548Z,11.73
2023-01-05T22:32:23.074Z,15.47
2023-01-05T22:34:51.377Z,14.97
2023-01-05T22:37:20.355Z,13.90
2023-01-05T22:39:50.373Z,13.07
2023-01-05T22:42:19.162Z,9.60
2023-01-05T22:44:47.726Z,16.20
2023-01-05T22:47:16.055Z,11.60
2023-01-05T22:49:44.391Z,16.27
2023-01-05T22:52:12.693Z,12.67
2023-01-05T22:54:41.065Z,14.90
2023-01-05T22:57:10.753Z,12.53
2023-01-05T22:59:39.121Z,16.40
2023-01-05T23:02:07.967Z,10.63
2023-01-05T23:04:36.538Z,14.93
2023-01-05T23:07:07.367Z,15.27
2023-01-05T23:09:35.740Z,13.40
2023-01-05T23:12:04.409Z,12.30
2023-01-05T23:14:34.146Z,6.53
2023-01-05T23:17:02.824Z,11.80
2023-01-05T23:19:31.417Z,10.50
2023-01-05T23:22:00.201Z,9.97
2023-01-05T23:24:29.483Z,8.33
2023-01-05T23:26:57.917Z,10.00
2023-01-05T23:29:26.790Z,6.17
2023-01-05T23:31:57.473Z,9.27
2023-01-05T23:34:26.096Z,9.57
2023-01-05T23:36:54.858Z,10.43
2023-01-05T23:39:23.402Z,6.00
2023-01-05T23:41:51.957Z,5.10
2023-01-05T23:44:20.347Z,5.27
2023-01-05T23:46:48.696Z,4.27
2023-01-05T23:49:18.720Z,8.17
2023-01-05T23:51:47.100Z,5.67
2023-01-05T23:54:16.326Z,7.67
2023-01-05T23:56:44.847Z,6.87
2023-01-05T23:59:13.636Z,8.07
